createdAt,value
2022-09-01T00:00:22.792Z,67.48
2022-09-01T00:05:38.083Z,63.41
2022-09-01T00:10:42.147Z,54.99
2022-09-01T00:15:45.270Z,53.74
2022-09-01T00:20:48.352Z,54.78
2022-09-01T00:25:51.373Z,55.73
2022-09-01T00:30:54.503Z,56.58
2022-09-01T00:35:58.501Z,57.35
2022-09-01T00:41:02.223Z,58.19
2022-09-01T00:46:13.533Z,59.09
2022-09-01T00:51:21.835Z,59.69
2022-09-01T00:56:25.164Z,60.38
2022-09-01T01:01:28.677Z,60.96
2022-09-01T01:06:33.442Z,60.63
2022-09-01T01:11:37.043Z,61.64
2022-09-01T01:16:44.816Z,67.77
2022-09-01T01:22:06.619Z,64.40
2022-09-01T01:27:09.704Z,55.36
2022-09-01T01:32:13.341Z,54.56
2022-09-01T01:37:17.044Z,55.76
2022-09-01T01:42:20.271Z,56.71
2022-09-01T01:47:23.327Z,57.72
2022-09-01T01:52:27.279Z,58.73
2022-09-01T01:57:33.176Z,59.46
2022-09-01T02:02:38.242Z,60.34
2022-09-01T02:07:43.075Z,60.80
2022-09-01T02:12:46.568Z,61.38
2022-09-01T02:17:50.161Z,61.93
2022-09-01T02:22:55.551Z,61.68
2022-09-01T02:28:00.696Z,68.15
2022-09-01T02:33:05.159Z,64.34
2022-09-01T02:38:08.961Z,55.94
2022-09-01T02:43:12.459Z,54.83
2022-09-01T02:48:16.473Z,56.39
2022-09-01T02:53:22.578Z,57.18
2022-09-01T02:58:34.353Z,58.32
2022-09-01T03:03:38.205Z,58.87
2022-09-01T03:08:41.221Z,59.59
2022-09-01T03:13:44.290Z,60.59
2022-09-01T03:18:47.623Z,61.74
2022-09-01T03:23:52.837Z,67.30
2022-09-01T03:28:57.106Z,63.96
2022-09-01T03:34:01.438Z,56.37
2022-09-01T03:39:05.018Z,55.14
2022-09-01T03:44:12.303Z,56.68
2022-09-01T03:49:15.798Z,57.78
2022-09-01T03:54:18.999Z,59.02
2022-09-01T03:59:22.728Z,59.81
2022-09-01T04:04:26.674Z,60.62
2022-09-01T04:09:29.708Z,61.41
2022-09-01T04:14:33.142Z,67.81
2022-09-01T04:19:39.720Z,64.63
2022-09-01T04:24:46.265Z,57.10
2022-09-01T04:29:50.361Z,53.98
2022-09-01T04:34:53.396Z,53.78
2022-09-01T04:39:57.922Z,52.44
2022-09-01T04:45:01.971Z,50.75
2022-09-01T04:50:16.410Z,50.16
2022-09-01T04:55:19.689Z,50.91
2022-09-01T05:00:23.175Z,51.44
2022-09-01T05:05:27.469Z,51.30
2022-09-01T05:10:31.742Z,53.40
2022-09-01T05:15:35.739Z,55.00
2022-09-01T05:20:43.432Z,55.93
2022-09-01T05:25:51.343Z,57.52
2022-09-01T05:30:54.879Z,57.85
2022-09-01T05:36:02.195Z,53.66
2022-09-01T05:41:08.772Z,48.20
2022-09-01T05:46:12.727Z,44.21
2022-09-01T05:51:43.141Z,44.38
2022-09-01T05:56:48.169Z,46.90
2022-09-01T06:01:53.132Z,49.53
2022-09-01T06:07:06.436Z,51.78
2022-09-01T06:12:18.433Z,54.10
2022-09-01T06:17:26.511Z,55.43
2022-09-01T06:22:29.732Z,57.19
2022-09-01T06:27:33.934Z,58.40
2022-09-01T06:32:38.755Z,58.72
2022-09-01T06:37:46.213Z,59.76
2022-09-01T06:42:52.633Z,59.98
2022-09-01T06:47:57.682Z,60.34
2022-09-01T06:58:33.872Z,60.57
2022-09-01T07:03:37.405Z,60.29
2022-09-01T07:14:21.782Z,60.56
2022-09-01T07:19:48.391Z,60.07
2022-09-01T07:25:11.531Z,60.20
2022-09-01T07:30:12.958Z,59.60
2022-09-01T07:35:22.619Z,59.05
2022-09-01T07:45:58.906Z,58.73
2022-09-01T07:56:25.834Z,57.71
2022-09-01T08:01:28.950Z,56.96
2022-09-01T08:06:39.308Z,56.56
2022-09-01T08:12:01.822Z,55.50
2022-09-01T08:22:29.022Z,54.92
2022-09-01T08:27:36.530Z,54.24
2022-09-01T08:32:44.189Z,54.40
2022-09-01T08:37:47.216Z,53.91
2022-09-01T08:43:19.930Z,53.67
2022-09-01T08:54:32.064Z,53.54
2022-09-01T08:59:35.144Z,53.41
2022-09-01T09:04:56.988Z,53.15
2022-09-01T09:10:51.162Z,52.64
2022-09-01T09:16:08.719Z,53.28
2022-09-01T09:21:42.738Z,53.10
2022-09-01T09:26:55.237Z,52.91
2022-09-01T09:32:39.529Z,52.34
2022-09-01T09:37:32.626Z,52.06
2022-09-01T09:42:40.038Z,51.83
2022-09-01T09:47:46.803Z,50.53
2022-09-01T09:52:52.471Z,50.12
2022-09-01T09:58:02.043Z,50.05
2022-09-01T10:03:13.644Z,49.41
2022-09-01T10:08:37.237Z,48.72
2022-09-01T10:13:40.603Z,48.73
2022-09-01T10:18:46.762Z,49.29
2022-09-01T10:23:49.894Z,48.93
2022-09-01T10:29:12.157Z,48.69
2022-09-01T10:34:19.887Z,49.00
2022-09-01T10:39:28.704Z,49.08
2022-09-01T10:44:58.309Z,48.93
2022-09-01T10:50:21.039Z,48.99
2022-09-01T10:55:30.008Z,48.57
2022-09-01T11:00:36.923Z,48.43
2022-09-01T11:06:12.014Z,48.37
2022-09-01T11:11:51.768Z,48.01
2022-09-01T11:17:29.202Z,48.34
2022-09-01T11:22:33.978Z,48.55
2022-09-01T11:27:49.176Z,48.27
2022-09-01T11:33:00.331Z,48.28
2022-09-01T11:38:08.022Z,48.68
2022-09-01T11:43:16.879Z,48.47
2022-09-01T11:48:22.746Z,48.74
2022-09-01T11:53:27.383Z,48.56
2022-09-01T11:58:39.503Z,48.15
2022-09-01T12:03:44.261Z,47.89
2022-09-01T12:09:05.432Z,47.54
2022-09-01T12:14:12.423Z,48.16
2022-09-01T12:19:30.138Z,48.95
2022-09-01T12:24:37.164Z,49.03
2022-09-01T12:29:40.903Z,49.27
2022-09-01T12:35:01.513Z,49.27
2022-09-01T12:40:05.747Z,48.33
2022-09-01T12:45:11.356Z,48.08
2022-09-01T12:50:16.472Z,47.62
2022-09-01T13:01:12.258Z,47.72
2022-09-01T13:06:20.191Z,47.96
2022-09-01T13:11:23.043Z,47.65
2022-09-01T13:16:26.049Z,47.72
2022-09-01T13:21:30.544Z,47.82
2022-09-01T13:26:34.017Z,47.93
2022-09-01T13:31:37.423Z,47.86
2022-09-01T13:36:45.469Z,46.91
2022-09-01T13:41:49.920Z,47.23
2022-09-01T13:47:00.876Z,47.55
2022-09-01T13:52:16.203Z,47.51
2022-09-01T13:57:19.254Z,47.70
2022-09-01T14:02:22.086Z,47.92
2022-09-01T14:07:25.070Z,48.09
2022-09-01T14:12:28.744Z,48.26
2022-09-01T14:17:32.062Z,48.44
2022-09-01T14:22:38.499Z,48.58
2022-09-01T14:27:44.648Z,48.85
2022-09-01T14:32:48.145Z,48.97
2022-09-01T14:37:53.571Z,49.25
2022-09-01T14:42:57.552Z,48.27
2022-09-01T14:48:01.451Z,47.20
2022-09-01T14:53:04.488Z,47.34
2022-09-01T14:58:07.361Z,47.32
2022-09-01T15:03:10.581Z,47.05
2022-09-01T15:08:17.623Z,46.91
2022-09-01T15:13:21.169Z,46.70
2022-09-01T15:18:24.347Z,46.89
2022-09-01T15:23:27.245Z,45.80
2022-09-01T15:28:30.252Z,45.70
2022-09-01T15:33:33.078Z,45.55
2022-09-01T15:38:36.157Z,45.63
2022-09-01T15:43:39.067Z,45.80
2022-09-01T15:48:46.145Z,45.91
2022-09-01T15:53:55.579Z,45.83
2022-09-01T15:59:01.612Z,45.98
2022-09-01T16:04:07.774Z,45.84
2022-09-01T16:09:12.692Z,45.61
2022-09-01T16:14:16.270Z,46.15
2022-09-01T16:19:40.239Z,46.37
2022-09-01T16:24:48.383Z,46.50
2022-09-01T16:30:22.659Z,46.74
2022-09-01T16:35:57.601Z,46.92
2022-09-01T16:41:31.444Z,47.05
2022-09-01T16:46:46.280Z,47.19
2022-09-01T16:52:06.913Z,47.21
2022-09-01T16:57:49.124Z,47.06
2022-09-01T17:03:08.221Z,47.28
2022-09-01T17:08:23.591Z,47.37
2022-09-01T17:13:38.483Z,47.21
2022-09-01T17:18:58.000Z,47.15
2022-09-01T17:24:19.310Z,47.31
2022-09-01T17:29:51.994Z,47.68
2022-09-01T17:35:30.046Z,47.68
2022-09-01T17:41:13.622Z,47.82
2022-09-01T17:46:44.404Z,48.18
2022-09-01T17:52:26.544Z,48.39
2022-09-01T17:57:51.063Z,48.57
2022-09-01T18:03:26.332Z,48.80
2022-09-01T18:08:38.290Z,49.06
2022-09-01T18:14:03.883Z,49.84
2022-09-01T18:19:19.446Z,50.91
2022-09-01T18:24:43.539Z,51.35
2022-09-01T18:29:46.910Z,52.22
2022-09-01T18:35:28.292Z,52.80
2022-09-01T18:41:12.698Z,53.15
2022-09-01T18:47:03.554Z,53.85
2022-09-01T18:52:36.538Z,54.75
2022-09-01T18:57:41.862Z,55.21
2022-09-01T19:03:00.002Z,55.58
2022-09-01T19:08:12.029Z,56.20
2022-09-01T19:14:03.505Z,56.59
2022-09-01T19:19:28.338Z,56.98
2022-09-01T19:24:47.860Z,57.55
2022-09-01T19:30:02.248Z,57.77
2022-09-01T19:35:14.417Z,57.94
2022-09-01T19:40:32.072Z,58.33
2022-09-01T19:45:56.876Z,58.17
2022-09-01T19:51:15.371Z,58.63
2022-09-01T19:56:32.938Z,58.34
2022-09-01T20:01:59.627Z,58.30
2022-09-01T20:07:02.992Z,58.27
2022-09-01T20:12:14.669Z,58.32
2022-09-01T20:17:55.690Z,58.37
2022-09-01T20:23:32.912Z,59.10
2022-09-01T20:28:47.817Z,59.56
2022-09-01T20:34:15.302Z,59.47
2022-09-01T20:40:04.918Z,59.55
2022-09-01T20:45:19.997Z,59.33
2022-09-01T20:51:01.591Z,59.36
2022-09-01T20:56:47.816Z,59.55
2022-09-01T21:02:40.458Z,59.84
2022-09-01T21:07:52.293Z,59.70
2022-09-01T21:13:30.771Z,59.96
2022-09-01T21:19:07.822Z,60.04
2022-09-01T21:24:10.871Z,60.17
2022-09-01T21:29:52.524Z,60.16
2022-09-01T21:34:56.475Z,60.37
2022-09-01T21:39:59.987Z,60.89
2022-09-01T21:45:06.553Z,61.17
2022-09-01T21:50:10.581Z,60.82
2022-09-01T21:55:14.731Z,60.92
2022-09-01T22:00:31.838Z,60.88
2022-09-01T22:05:36.013Z,61.09
2022-09-01T22:10:49.816Z,61.11
2022-09-01T22:15:54.566Z,61.31
2022-09-01T22:21:10.070Z,61.77
2022-09-01T22:26:30.441Z,61.94
2022-09-01T22:31:37.471Z,62.21
2022-09-01T22:36:46.412Z,67.01
2022-09-01T22:41:49.418Z,61.51
2022-09-01T22:46:52.495Z,53.09
2022-09-01T22:51:55.518Z,53.31
2022-09-01T22:56:59.524Z,54.26
2022-09-01T23:02:02.867Z,55.08
2022-09-01T23:07:07.310Z,56.52
2022-09-01T23:12:10.297Z,57.58
2022-09-01T23:17:13.324Z,58.27
2022-09-01T23:22:17.113Z,58.93
2022-09-01T23:27:20.193Z,58.90
2022-09-01T23:32:23.210Z,59.18
2022-09-01T23:37:27.525Z,59.55
2022-09-01T23:42:30.496Z,60.04
2022-09-01T23:47:35.735Z,60.53
2022-09-01T23:52:39.557Z,60.88
2022-09-01T23:57:42.598Z,61.14
